M I D A S
Marine Information and Data Acquisition System
Tripno 1883 of the Zeeleeuw from 2010-05-17 06:33:20 to 2010-05-17 16:14:12
Back to CruiseResearch ActivitiesStationsMapUnderway DataData graphs

EquipmentUnitsComment
TimeDGPSUTC
LatitudeDGPSDM.mWGS84
LongitudeDGPSDM.mWGS84
HeadingGyrodeg 
SOGDGPSknotsSpeed over ground
COGDGPSdegCourse over ground
DepthEcho soundermeters200 kHz
Missing or incorrect values are displayed as -999
Navigation data collected by the RV Zeeleeuw from 2010-05-17 06:19:13 to 2010-05-17 16:23:30
Time Latitude Longitude Heading SOG COG Depth
2010-05-17 06:20:17 51°13.662 2°55.96 127.4 -999 9 -999
2010-05-17 06:21:17 51°13.662 2°55.96 127 -999 63 -999
2010-05-17 06:22:17 51°13.661 2°55.96 127.1 -999 333 -999
2010-05-17 06:23:17 51°13.661 2°55.96 127.7 -999 25 -999
2010-05-17 06:24:17 51°13.662 2°55.96 125.7 -999 183 -999
2010-05-17 06:25:17 51°13.662 2°55.96 126.7 0.1 328 -999
2010-05-17 06:26:17 51°13.662 2°55.961 127.8 -999 96 -999
2010-05-17 06:27:17 51°13.662 2°55.961 127.2 0.1 290 -999
2010-05-17 06:28:16 51°13.662 2°55.961 125.6 -999 144 5.8
2010-05-17 06:29:14 51°13.662 2°55.96 126.5 -999 315 5.8
2010-05-17 06:30:13 51°13.662 2°55.961 125.6 -999 11 5.8
2010-05-17 06:31:13 51°13.662 2°55.961 125.8 -999 246 5.8
2010-05-17 06:32:13 51°13.662 2°55.96 124.7 -999 127 5.7
2010-05-17 06:33:14 51°13.663 2°55.961 125.6 -999 117 5.7
2010-05-17 06:34:14 51°13.662 2°55.961 127.5 -999 29 5.7
2010-05-17 06:35:14 51°13.663 2°55.961 127.1 -999 10 5.7
2010-05-17 06:36:14 51°13.663 2°55.96 128.9 -999 213 5.8
2010-05-17 06:37:14 51°13.663 2°55.96 128.9 0.1 216 5.8
2010-05-17 06:38:14 51°13.663 2°55.961 122.1 0.1 194 5.7
2010-05-17 06:39:14 51°13.662 2°55.96 113.3 0.1 206 5.8
2010-05-17 06:40:16 51°13.671 2°55.929 110.4 2.5 295 -999
2010-05-17 06:41:18 51°13.687 2°55.837 101.2 3.9 282 -999
2010-05-17 06:42:17 51°13.698 2°55.759 95 1.1 296 12
2010-05-17 06:43:14 51°13.701 2°55.757 43.9 1.1 232 12.1
2010-05-17 06:44:18 51°13.699 2°55.74 4.1 1.9 355 -999
2010-05-17 06:45:14 51°13.757 2°55.686 331.1 7 329 11
2010-05-17 06:46:14 51°13.892 2°55.586 339.8 9.8 340 10.3
2010-05-17 06:47:14 51°14.05 2°55.496 341.2 10.1 338 10.4
2010-05-17 06:48:14 51°14.201 2°55.362 330.2 10.7 328 10.3
2010-05-17 06:49:14 51°14.359 2°55.205 332.3 11.6 332 10.1
2010-05-17 06:50:14 51°14.529 2°55.045 326.9 12.4 325 10.6
2010-05-17 06:51:14 51°14.701 2°54.839 333.3 13.3 326 11
2010-05-17 06:52:14 51°14.885 2°54.647 330.5 13.2 327 11.1
2010-05-17 06:53:14 51°15.078 2°54.501 344.2 12.7 343 8.2
2010-05-17 06:54:14 51°15.286 2°54.465 2.9 12.8 359 8.3
2010-05-17 06:55:14 51°15.501 2°54.424 355.5 13.3 352 9.1
2010-05-17 06:56:14 51°15.719 2°54.37 355 12.6 350 9.5
2010-05-17 06:57:14 51°15.897 2°54.324 359.8 9.7 354 10.1
2010-05-17 06:58:14 51°16.031 2°54.3 0.6 7.2 353 10.3
2010-05-17 06:59:14 51°16.141 2°54.278 1 6.4 353 10.7
2010-05-17 07:00:13 51°16.235 2°54.256 359 4.8 348 10.7
2010-05-17 07:01:14 51°16.277 2°54.22 347.1 1.5 313 10.9
2010-05-17 07:02:14 51°16.289 2°54.201 8.1 0.8 321 11
2010-05-17 07:03:14 51°16.299 2°54.187 7.2 0.7 310 10.9
2010-05-17 07:04:14 51°16.305 2°54.172 3.1 0.6 301 10.8
2010-05-17 07:05:14 51°16.309 2°54.157 0.1 0.6 288 11
2010-05-17 07:06:14 51°16.311 2°54.14 356.4 0.6 277 10.8
2010-05-17 07:07:14 51°16.31 2°54.123 353.6 0.6 266 10.9
2010-05-17 07:08:14 51°16.309 2°54.106 351.8 0.6 261 10.8
2010-05-17 07:09:14 51°16.307 2°54.09 349.7 0.6 255 10.8
2010-05-17 07:10:14 51°16.304 2°54.075 349.2 0.6 252 10.8
2010-05-17 07:11:14 51°16.3 2°54.062 351.6 0.5 242 10.9
2010-05-17 07:12:13 51°16.296 2°54.05 355.4 0.5 235 10.8
2010-05-17 07:13:24 51°16.331 2°54.016 345.5 5.1 335 10.8
2010-05-17 07:14:29 51°16.465 2°53.9 337.9 10.4 330 10.9
2010-05-17 07:15:29 51°16.622 2°53.72 327.8 12.5 322 10.7
2010-05-17 07:16:29 51°16.786 2°53.486 323.1 13.5 318 10.3
2010-05-17 07:17:30 51°16.946 2°53.233 318.2 12.7 313 7.5
2010-05-17 07:18:29 51°17.082 2°52.971 311.9 13.4 309 8.1
2010-05-17 07:19:30 51°17.234 2°52.691 315.1 13.7 310 8.8
2010-05-17 07:20:30 51°17.382 2°52.416 315.1 13.8 310 9.4
2010-05-17 07:21:30 51°17.537 2°52.148 319.7 13.7 317 10.4
2010-05-17 07:22:30 51°17.7 2°51.898 321 13.5 317 9.2
2010-05-17 07:23:30 51°17.868 2°51.662 328 13.5 324 9.4
2010-05-17 07:24:30 51°18.057 2°51.462 331.5 13.6 326 10
2010-05-17 07:25:30 51°18.224 2°51.278 331.2 9.7 324 11.5
2010-05-17 07:26:29 51°18.318 2°51.167 334.4 5.4 326 12.4
2010-05-17 07:27:30 51°18.387 2°51.117 344.1 4 333 12.9
2010-05-17 07:28:30 51°18.44 2°51.059 338 3.7 325 12.8
2010-05-17 07:29:29 51°18.484 2°51.014 343.5 2.4 324 13
2010-05-17 07:30:30 51°18.499 2°50.987 339.8 1.1 302 13
2010-05-17 07:31:30 51°18.505 2°50.963 334 1 288 13
2010-05-17 07:32:30 51°18.508 2°50.941 333.2 0.8 273 13.3
2010-05-17 07:33:29 51°18.508 2°50.922 336.1 0.7 264 13.1
2010-05-17 07:34:30 51°18.525 2°50.895 346.9 3.2 334 13.2
2010-05-17 07:35:30 51°18.608 2°50.937 46.9 7.5 45 13.3
2010-05-17 07:36:29 51°18.693 2°51.144 59.6 11 56 13.3
2010-05-17 07:37:29 51°18.767 2°51.438 74.3 12.5 76 13.3
2010-05-17 07:38:30 51°18.826 2°51.761 73.8 12.5 74 12.9
2010-05-17 07:39:30 51°18.885 2°52.079 74.1 12.4 73 12.6
2010-05-17 07:40:30 51°18.945 2°52.395 73.9 12.3 73 12.1
2010-05-17 07:41:30 51°19.009 2°52.711 73 12.6 72 11.6
2010-05-17 07:42:30 51°19.072 2°53.03 73.4 12.6 73 11.2
2010-05-17 07:43:29 51°19.135 2°53.344 73.6 12.6 72 11.1
2010-05-17 07:44:29 51°19.199 2°53.662 73.4 12.6 72 11
2010-05-17 07:45:30 51°19.264 2°53.984 72.8 12.5 72 11.1
2010-05-17 07:46:30 51°19.325 2°54.3 73.4 12.4 73 11
2010-05-17 07:47:30 51°19.387 2°54.613 73.6 12.4 72 11
2010-05-17 07:48:30 51°19.449 2°54.926 73 12.3 73 10.8
2010-05-17 07:49:30 51°19.513 2°55.238 72.4 12.2 73 10.7
2010-05-17 07:50:30 51°19.576 2°55.55 74.4 12.5 71 10.8
2010-05-17 07:51:30 51°19.639 2°55.864 72.9 12.4 72 10.6
2010-05-17 07:52:30 51°19.705 2°56.177 73.3 12.4 71 10.5
2010-05-17 07:53:30 51°19.769 2°56.489 73.9 12.3 71 10.4
2010-05-17 07:54:30 51°19.833 2°56.802 73.6 12.4 72 10.4
2010-05-17 07:55:30 51°19.897 2°57.113 74.1 12.3 72 10.2
2010-05-17 07:56:29 51°19.959 2°57.417 73 12.1 73 10.1
2010-05-17 07:57:30 51°20.024 2°57.726 73.6 12.1 70 9.8
2010-05-17 07:58:30 51°20.094 2°58.025 69.8 11.9 68 9.8
2010-05-17 07:59:30 51°20.166 2°58.322 70 11.9 69 9.8
2010-05-17 08:00:30 51°20.236 2°58.616 70.5 11.8 69 9.8
2010-05-17 08:01:30 51°20.306 2°58.908 70.5 11.8 68 9.6
2010-05-17 08:02:30 51°20.37 2°59.207 74.8 11.9 76 9.5
2010-05-17 08:03:30 51°20.419 2°59.511 76.9 11.8 76 9.3
2010-05-17 08:04:30 51°20.467 2°59.815 77.5 11.9 77 9.3
2010-05-17 08:05:30 51°20.514 3°0.12 77 11.8 76 9.1
2010-05-17 08:06:29 51°20.559 3°0.413 76.2 11.6 75 8.9
2010-05-17 08:07:30 51°20.61 3°0.716 76.9 11.6 76 8.8
2010-05-17 08:08:30 51°20.661 3°1.014 76.1 11.7 76 8.7
2010-05-17 08:09:30 51°20.709 3°1.314 76.8 11.7 77 8.7
2010-05-17 08:10:29 51°20.758 3°1.608 75.9 11.6 76 8.8
2010-05-17 08:11:30 51°20.807 3°1.913 76.4 11.7 77 8.9
2010-05-17 08:12:30 51°20.855 3°2.213 75.4 11.6 76 8.9
2010-05-17 08:13:30 51°20.901 3°2.512 74.5 11.5 73 8.9
2010-05-17 08:14:29 51°20.965 3°2.796 70.3 11.6 71 8.5
2010-05-17 08:15:29 51°21.031 3°3.085 70.4 11.7 69 8.7
2010-05-17 08:16:32 51°21.1 3°3.39 72.3 11.6 70 9
2010-05-17 08:17:31 51°21.167 3°3.676 70.4 11.6 71 8.9
2010-05-17 08:18:31 51°21.234 3°3.967 71.2 11.6 70 9.2
2010-05-17 08:19:31 51°21.297 3°4.257 71.6 11.5 69 9.4
2010-05-17 08:20:32 51°21.363 3°4.545 71 11.2 69 9.5
2010-05-17 08:21:31 51°21.425 3°4.82 70.5 11.1 70 9.5
2010-05-17 08:22:31 51°21.483 3°5.1 72.6 11 74 9.4
2010-05-17 08:23:31 51°21.54 3°5.382 72.3 11.3 74 9.4
2010-05-17 08:24:32 51°21.6 3°5.671 71.6 11.3 73 9.3
2010-05-17 08:25:32 51°21.659 3°5.958 71.6 11.4 73 9.7
2010-05-17 08:26:32 51°21.719 3°6.246 71.4 11.3 72 9.8
2010-05-17 08:27:32 51°21.777 3°6.531 71.9 11.3 72 9.9
2010-05-17 08:28:32 51°21.838 3°6.817 71.2 11.5 71 9.9
2010-05-17 08:29:32 51°21.901 3°7.102 71.8 11.4 66 10.3
2010-05-17 08:30:32 51°21.959 3°7.39 71.6 11.5 73 10.5
2010-05-17 08:31:31 51°22.019 3°7.675 71.1 11.6 72 10.5
2010-05-17 08:32:31 51°22.082 3°7.964 71.5 11.5 72 10.7
2010-05-17 08:33:31 51°22.144 3°8.255 71.3 11.6 71 10.9
2010-05-17 08:34:31 51°22.207 3°8.547 71.5 11.5 69 11.2
2010-05-17 08:35:31 51°22.246 3°8.846 81 11.6 86 11.4
2010-05-17 08:36:31 51°22.275 3°9.149 80.1 11.6 77 11.7
2010-05-17 08:37:31 51°22.298 3°9.452 82.1 11.5 86 11.9
2010-05-17 08:38:32 51°22.327 3°9.758 81.4 11.5 82 12.2
2010-05-17 08:39:31 51°22.357 3°10.055 80.8 11.6 81 12.6
2010-05-17 08:40:31 51°22.388 3°10.36 80.4 11.8 81 18
2010-05-17 08:41:31 51°22.425 3°10.669 80.7 11.9 81 15.2
2010-05-17 08:42:31 51°22.455 3°10.979 83.4 11.9 84 14.3
2010-05-17 08:43:31 51°22.469 3°11.291 85.3 11.8 86 14.5
2010-05-17 08:44:31 51°22.482 3°11.605 85.8 11.9 88 14.1
2010-05-17 08:45:31 51°22.497 3°11.917 85 11.7 86 13.6
2010-05-17 08:46:31 51°22.511 3°12.231 85.5 11.8 85 13
2010-05-17 08:47:31 51°22.525 3°12.52 86.9 8.8 87 12.8
2010-05-17 08:48:31 51°22.538 3°12.717 81.2 6.6 78 12.3
2010-05-17 08:49:32 51°22.559 3°12.855 77.9 4.5 76 12
2010-05-17 08:50:31 51°22.573 3°12.959 79.2 4 77 11.5
2010-05-17 08:51:32 51°22.587 3°13.063 79 3.9 77 11.1
2010-05-17 08:52:32 51°22.601 3°13.162 78.8 3.2 78 11.1
2010-05-17 08:53:31 51°22.614 3°13.181 49.2 0.6 321 11
2010-05-17 08:54:31 51°22.622 3°13.165 36.7 0.7 297 11
2010-05-17 08:55:31 51°22.626 3°13.145 31.7 0.9 282 11
2010-05-17 08:56:31 51°22.627 3°13.12 26.8 1 270 10.9
2010-05-17 08:57:31 51°22.634 3°13.104 39.4 1.6 13 11
2010-05-17 08:58:31 51°22.694 3°13.166 44.8 5.9 35 10.6
2010-05-17 08:59:31 51°22.797 3°13.295 44.1 10 38 10
2010-05-17 09:00:31 51°22.939 3°13.477 45.1 11.2 42 9.1
2010-05-17 09:01:32 51°23.086 3°13.671 45 11.5 39 8.8
2010-05-17 09:02:31 51°23.236 3°13.868 45.2 12.1 37 8.9
2010-05-17 09:03:31 51°23.389 3°14.066 45.4 11.7 41 8.6
2010-05-17 09:04:31 51°23.544 3°14.266 45.3 12.1 40 9.5
2010-05-17 09:05:31 51°23.7 3°14.469 45.2 12.1 37 10
2010-05-17 09:06:32 51°23.857 3°14.677 46 12.1 39 10.1
2010-05-17 09:07:32 51°24.015 3°14.875 45.3 12 37 10.4
2010-05-17 09:08:31 51°24.17 3°15.073 45.4 12.2 37 10.7
2010-05-17 09:09:32 51°24.336 3°15.279 44.4 12.4 40 14.4
2010-05-17 09:10:32 51°24.501 3°15.469 45.8 12.2 35 17.2
2010-05-17 09:11:31 51°24.646 3°15.683 51.1 12.2 46 18.1
2010-05-17 09:12:31 51°24.794 3°15.92 50 12.7 45 15.8
2010-05-17 09:13:31 51°24.942 3°16.163 50.9 12.7 46 13.7
2010-05-17 09:14:31 51°25.09 3°16.409 49.8 12.8 46 13.2
2010-05-17 09:15:31 51°25.232 3°16.656 51.4 12.3 48 11
2010-05-17 09:16:31 51°25.372 3°16.896 50.5 12 46 9.7
2010-05-17 09:17:50 51°25.508 3°17.134 49.8 7.5 46 8.8
2010-05-17 09:18:50 51°25.585 3°17.274 49.9 6.7 48 8.6
2010-05-17 09:19:50 51°25.655 3°17.397 49.8 6 49 8.2
2010-05-17 09:20:50 51°25.715 3°17.511 50.6 5.4 50 8
2010-05-17 09:21:50 51°25.772 3°17.622 50.3 5.3 51 7.9
2010-05-17 09:22:50 51°25.824 3°17.724 49.8 4.6 50 7.8
2010-05-17 09:23:50 51°25.866 3°17.803 44.8 2.7 45 8
2010-05-17 09:24:50 51°25.88 3°17.818 22.5 0.5 21 8
2010-05-17 09:25:50 51°25.886 3°17.82 17.2 0.6 13 7.9
2010-05-17 09:26:50 51°25.9 3°17.872 80.4 3.6 96 7.8
2010-05-17 09:27:50 51°25.842 3°17.938 166.5 5.6 179 7.9
2010-05-17 09:28:50 51°25.765 3°17.825 244.5 8.4 241 8.1
2010-05-17 09:29:50 51°25.707 3°17.556 260.4 12.2 257 8
2010-05-17 09:30:50 51°25.647 3°17.225 253.6 13.5 249 7.8
2010-05-17 09:31:50 51°25.569 3°16.88 255.4 13.9 251 8.1
2010-05-17 09:32:50 51°25.496 3°16.528 260.5 14 258 8.4
2010-05-17 09:33:50 51°25.444 3°16.163 260.8 14.1 257 8.8
2010-05-17 09:34:50 51°25.392 3°15.795 260.5 14.3 257 9.4
2010-05-17 09:35:50 51°25.31 3°15.435 251.5 14.4 248 10.5
2010-05-17 09:36:50 51°25.224 3°15.078 252.1 14.4 249 11.7
2010-05-17 09:37:50 51°25.141 3°14.718 252.1 14.4 250 12.6
2010-05-17 09:38:50 51°25.058 3°14.359 251.9 14.4 250 13.3
2010-05-17 09:39:50 51°24.991 3°13.992 257.7 14.4 255 13.3
2010-05-17 09:40:50 51°24.928 3°13.623 257.9 14.4 255 13.4
2010-05-17 09:41:50 51°24.867 3°13.25 257.4 14.6 255 13.3
2010-05-17 09:42:50 51°24.82 3°12.869 260.3 14.7 259 13.1
2010-05-17 09:43:50 51°24.772 3°12.483 262.6 14.8 260 13.2
2010-05-17 09:44:50 51°24.724 3°12.101 262.4 14.6 258 12.6
2010-05-17 09:45:50 51°24.677 3°11.723 263.1 14.5 259 12
2010-05-17 09:46:50 51°24.634 3°11.342 262.3 14.5 259 12
2010-05-17 09:47:50 51°24.594 3°10.961 264.9 14.5 261 12.2
2010-05-17 09:48:50 51°24.56 3°10.576 265.6 14.6 262 11.6
2010-05-17 09:49:50 51°24.525 3°10.191 267.9 14.6 264 11
2010-05-17 09:50:49 51°24.512 3°9.815 274.1 14.2 270 10.6
2010-05-17 09:51:50 51°24.522 3°9.434 279.4 13.9 276 10.2
2010-05-17 09:52:49 51°24.549 3°9.073 281.7 13.8 278 9.7
2010-05-17 09:53:50 51°24.577 3°8.703 282.1 13.7 279 9.4
2010-05-17 09:54:50 51°24.647 3°8.36 296.9 13.5 292 9.5
2010-05-17 09:55:50 51°24.731 3°8.026 296.7 13.5 292 9.4
2010-05-17 09:56:49 51°24.812 3°7.697 299.2 13.5 294 9.4
2010-05-17 09:57:49 51°24.914 3°7.38 303.7 13.4 298 9.3
2010-05-17 09:58:49 51°25.056 3°7.12 325.1 12.7 320 8.5
2010-05-17 09:59:50 51°25.247 3°6.99 356.3 12.3 356 8.8
2010-05-17 10:00:50 51°25.427 3°7.105 37.6 11.9 39 9.1
2010-05-17 10:01:49 51°25.57 3°7.323 44.1 11.9 44 9.1
2010-05-17 10:02:50 51°25.726 3°7.531 38.7 12 39 8.7
2010-05-17 10:03:49 51°25.879 3°7.727 38.6 12 40 8.5
2010-05-17 10:04:50 51°26.038 3°7.923 35.2 11.8 35 8.1
2010-05-17 10:05:50 51°26.181 3°8.09 35.6 8.7 38 8.9
2010-05-17 10:06:50 51°26.262 3°8.194 31.6 4.8 32 9
2010-05-17 10:07:50 51°26.325 3°8.234 17.2 3.7 17 9.7
2010-05-17 10:08:49 51°26.384 3°8.26 17.9 3.8 17 9.7
2010-05-17 10:09:50 51°26.428 3°8.289 33 1.2 57 9.6
2010-05-17 10:10:50 51°26.425 3°8.322 59.2 1.3 117 9.6
2010-05-17 10:11:50 51°26.413 3°8.35 60.4 1.3 131 9.7
2010-05-17 10:12:50 51°26.399 3°8.368 54.9 1.1 148 9.5
2010-05-17 10:13:50 51°26.383 3°8.379 50.1 1 164 9.6
2010-05-17 10:14:50 51°26.372 3°8.389 35 0.4 97 9.6
2010-05-17 10:15:50 51°26.406 3°8.354 326.4 5.5 311 9.6
2010-05-17 10:16:50 51°26.504 3°8.195 321 10.4 310 9.5
2010-05-17 10:17:50 51°26.605 3°7.932 307.8 12.4 299 9
2010-05-17 10:18:50 51°26.714 3°7.635 308.7 13.3 300 10.3
2010-05-17 10:19:49 51°26.828 3°7.338 309.3 13.3 302 10.9
2010-05-17 10:20:50 51°26.945 3°7.031 309.8 13.3 302 11.3
2010-05-17 10:21:50 51°27.062 3°6.734 310.4 13.2 302 12
2010-05-17 10:22:50 51°27.178 3°6.437 310.1 13.2 302 12.8
2010-05-17 10:23:49 51°27.294 3°6.143 310 13.3 301 13.1
2010-05-17 10:24:50 51°27.411 3°5.837 309.7 13.3 301 13.4
2010-05-17 10:25:50 51°27.527 3°5.535 310 13.3 301 14
2010-05-17 10:26:49 51°27.642 3°5.237 309.8 13.4 302 14.4
2010-05-17 10:27:50 51°27.762 3°4.928 310.1 13.4 302 13.6
2010-05-17 10:28:49 51°27.878 3°4.629 310.2 13.5 302 14.7
2010-05-17 10:29:50 51°27.999 3°4.317 310.7 13.6 302 16.8
2010-05-17 10:30:49 51°28.105 3°4.055 316.6 9.5 305 19
2010-05-17 10:31:50 51°28.177 3°3.881 316.8 6.7 301 19.9
2010-05-17 10:32:50 51°28.233 3°3.729 316.5 6.8 301 20.7
2010-05-17 10:33:50 51°28.286 3°3.579 315.8 5.4 297 21.5
2010-05-17 10:34:49 51°28.305 3°3.506 353.2 1.3 286 22
2010-05-17 10:35:49 51°28.307 3°3.483 13.4 0.7 259 22.1
2010-05-17 10:36:50 51°28.3 3°3.465 14.3 0.8 233 22.5
2010-05-17 10:37:50 51°28.29 3°3.446 11.6 1 228 22.2
2010-05-17 10:38:50 51°28.278 3°3.427 10.5 1.1 220 22.5
2010-05-17 10:39:49 51°28.263 3°3.408 11.5 1.2 216 22.2
2010-05-17 10:40:50 51°28.251 3°3.387 359.7 1 261 22.2
2010-05-17 10:41:50 51°28.256 3°3.34 314.9 2.7 272 22.5
2010-05-17 10:42:49 51°28.236 3°3.231 249 6.9 243 22.3
2010-05-17 10:43:50 51°28.199 3°2.984 271.8 10.8 264 22.8
2010-05-17 10:44:49 51°28.175 3°2.655 267.5 14.2 261 23.2
2010-05-17 10:45:50 51°28.139 3°2.266 266.8 14.6 261 23.1
2010-05-17 10:46:50 51°28.101 3°1.881 266.2 14.8 263 23.5
2010-05-17 10:47:50 51°28.06 3°1.489 264.8 14.9 259 23
2010-05-17 10:48:50 51°27.997 3°1.103 258.7 15 254 22.2
2010-05-17 10:49:50 51°27.931 3°0.72 259 14.9 255 21.6
2010-05-17 10:50:49 51°27.861 3°0.345 259 14.8 253 21
2010-05-17 10:51:50 51°27.793 2°59.958 259.2 14.8 255 19.6
2010-05-17 10:52:50 51°27.726 2°59.58 259.7 14.8 255 18.1
2010-05-17 10:53:50 51°27.66 2°59.202 259 14.7 255 19
2010-05-17 10:54:50 51°27.595 2°58.827 259.4 14.6 255 18.3
2010-05-17 10:55:50 51°27.53 2°58.452 259 14.6 254 18.1
2010-05-17 10:56:50 51°27.465 2°58.076 259.8 14.7 255 21.1
2010-05-17 10:57:50 51°27.398 2°57.696 259.3 14.9 255 24.5
2010-05-17 10:58:50 51°27.324 2°57.314 257 15.1 254 25.2
2010-05-17 10:59:50 51°27.248 2°56.933 256.8 15 252 23.8
2010-05-17 11:00:50 51°27.174 2°56.55 257.7 14.9 254 22.9
2010-05-17 11:01:50 51°27.099 2°56.168 257.2 15 254 28.2
2010-05-17 11:02:50 51°27.027 2°55.788 257.6 14.9 254 29.8
2010-05-17 11:03:50 51°26.956 2°55.411 256.7 14.8 254 28.1
2010-05-17 11:04:50 51°26.884 2°55.034 256.9 14.8 254 26.4
2010-05-17 11:05:50 51°26.813 2°54.656 257.3 14.9 252 26.2
2010-05-17 11:06:51 51°26.741 2°54.267 257.4 15.1 255 27
2010-05-17 11:07:50 51°26.67 2°53.892 257.3 14.8 254 31.6
2010-05-17 11:08:50 51°26.6 2°53.514 257 14.7 255 31.8
2010-05-17 11:09:50 51°26.531 2°53.141 257.6 14.6 255 30.6
2010-05-17 11:10:49 51°26.463 2°52.775 257 14.6 253 25.4
2010-05-17 11:11:50 51°26.391 2°52.394 257.5 14.7 252 27.8
2010-05-17 11:12:50 51°26.322 2°52.024 257.5 14.6 252 26.1
2010-05-17 11:13:50 51°26.254 2°51.653 257.1 14.5 255 25
2010-05-17 11:14:50 51°26.186 2°51.284 257.1 14.6 253 24.5
2010-05-17 11:15:50 51°26.116 2°50.91 257.2 14.6 252 23.7
2010-05-17 11:16:50 51°26.048 2°50.534 257.4 14.8 253 23.4
2010-05-17 11:17:50 51°25.977 2°50.157 257.5 14.8 255 23.2
2010-05-17 11:18:50 51°25.93 2°49.776 266.6 14.6 262 23.5
2010-05-17 11:19:50 51°25.899 2°49.392 266.7 14.4 261 23.4
2010-05-17 11:20:50 51°25.866 2°49.009 266.5 14.6 262 24.5
2010-05-17 11:21:55 51°25.833 2°48.661 266.4 10.4 261 24
2010-05-17 11:23:01 51°25.86 2°48.484 338 4.1 322 24
2010-05-17 11:24:02 51°25.901 2°48.48 33 1.2 16 23.9
2010-05-17 11:25:02 51°25.9 2°48.481 53.5 0.7 201 23.8
2010-05-17 11:26:02 51°25.886 2°48.476 67.3 0.9 191 23.9
2010-05-17 11:27:02 51°25.87 2°48.469 61.9 1 199 24.1
2010-05-17 11:28:01 51°25.854 2°48.459 54.3 1.1 203 23.8
2010-05-17 11:29:02 51°25.837 2°48.444 45.5 1.2 207 23.9
2010-05-17 11:30:02 51°25.819 2°48.428 38.8 1.3 210 24.2
2010-05-17 11:31:02 51°25.8 2°48.41 31.7 1.4 208 24.1
2010-05-17 11:32:02 51°25.78 2°48.393 28.8 1.4 210 24.3
2010-05-17 11:33:02 51°25.773 2°48.394 52.3 1.7 72 24.1
2010-05-17 11:34:02 51°25.734 2°48.462 140.7 5.1 164 24.3
2010-05-17 11:35:02 51°25.632 2°48.398 217.3 9.5 219 24
2010-05-17 11:36:02 51°25.47 2°48.179 219.9 14.4 221 26.9
2010-05-17 11:37:02 51°25.284 2°47.928 219.3 14.6 222 27.7
2010-05-17 11:38:02 51°25.098 2°47.673 219.9 14.7 221 27.4
2010-05-17 11:39:02 51°24.913 2°47.41 219.4 15.2 223 31.2
2010-05-17 11:40:02 51°24.729 2°47.146 220.5 15 222 30
2010-05-17 11:41:02 51°24.546 2°46.878 220.6 14.8 222 30.7
2010-05-17 11:42:02 51°24.399 2°46.561 238.9 14.9 240 28.4
2010-05-17 11:43:01 51°24.291 2°46.212 249 14.9 251 28.7
2010-05-17 11:44:01 51°24.207 2°45.84 252.4 14.9 250 28.3
2010-05-17 11:45:01 51°24.116 2°45.472 248.9 14.9 248 26.8
2010-05-17 11:46:01 51°24.022 2°45.105 248.7 14.9 248 26.8
2010-05-17 11:47:02 51°23.926 2°44.731 249.1 14.9 250 27.3
2010-05-17 11:48:02 51°23.83 2°44.366 249 14.9 248 27.9
2010-05-17 11:49:01 51°23.735 2°44.008 248.6 14.8 246 26.7
2010-05-17 11:50:01 51°23.638 2°43.644 247.7 14.9 245 27.3
2010-05-17 11:51:01 51°23.541 2°43.284 248.8 14.7 243 27.1
2010-05-17 11:52:01 51°23.446 2°42.924 248.5 14.9 248 25
2010-05-17 11:53:01 51°23.351 2°42.561 248.3 14.8 250 27.8
2010-05-17 11:54:01 51°23.256 2°42.201 248.9 14.7 247 28.3
2010-05-17 11:55:01 51°23.16 2°41.843 248.2 14.7 246 28.3
2010-05-17 11:56:01 51°23.064 2°41.488 247.9 14.6 246 29
2010-05-17 11:57:01 51°22.968 2°41.132 248 14.4 247 29.5
2010-05-17 11:58:01 51°22.873 2°40.787 248.7 14.2 248 30.1
2010-05-17 11:59:01 51°22.779 2°40.443 248.2 14.2 245 30.3
2010-05-17 12:00:01 51°22.685 2°40.099 248.3 14.1 248 30.8
2010-05-17 12:01:01 51°22.591 2°39.753 248.3 14.3 246 30.2
2010-05-17 12:02:01 51°22.496 2°39.406 248.1 14.4 246 28.8
2010-05-17 12:03:01 51°22.4 2°39.059 248.3 14.1 246 30.1
2010-05-17 12:04:01 51°22.303 2°38.715 248.3 14.1 243 31.6
2010-05-17 12:05:01 51°22.21 2°38.374 247.6 14 246 31.6
2010-05-17 12:06:01 51°22.115 2°38.039 248.2 13.9 245 30.1
2010-05-17 12:07:01 51°22.022 2°37.702 248.7 13.8 246 31.4
2010-05-17 12:08:01 51°21.928 2°37.366 248.2 13.8 245 32
2010-05-17 12:09:01 51°21.834 2°37.03 248.3 13.9 245 32.7
2010-05-17 12:10:01 51°21.743 2°36.693 249 13.8 247 31.5
2010-05-17 12:11:01 51°21.65 2°36.358 248.3 13.8 248 32.7
2010-05-17 12:12:01 51°21.558 2°36.022 248.8 13.7 248 32
2010-05-17 12:13:01 51°21.465 2°35.687 248.2 13.9 247 31.7
2010-05-17 12:14:01 51°21.37 2°35.354 245.7 13.7 244 34.2
2010-05-17 12:15:01 51°21.267 2°35.026 245.4 13.7 245 37.5
2010-05-17 12:16:01 51°21.164 2°34.702 244.6 13.6 243 32.5
2010-05-17 12:17:01 51°21.068 2°34.376 248.3 13.5 247 32.4
2010-05-17 12:18:01 51°20.978 2°34.051 248.2 13.4 247 32.5
2010-05-17 12:19:01 51°20.89 2°33.725 247.9 13.3 247 32.3
2010-05-17 12:20:01 51°20.775 2°33.426 231 13.4 229 31.8
2010-05-17 12:21:01 51°20.641 2°33.142 245.4 13.3 247 31.9
2010-05-17 12:22:02 51°20.579 2°32.796 258.6 13.4 257 32
2010-05-17 12:23:01 51°20.517 2°32.462 250.7 13.3 247 32
2010-05-17 12:24:01 51°20.439 2°32.129 254 13.4 251 32
2010-05-17 12:25:06 51°20.368 2°31.759 254.6 13.5 255 29.3
2010-05-17 12:26:06 51°20.3 2°31.421 254.8 13.3 251 24.9
2010-05-17 12:27:06 51°20.235 2°31.088 255.6 13 253 20.7
2010-05-17 12:28:06 51°20.173 2°30.778 255.2 10.4 251 18.1
2010-05-17 12:29:06 51°20.129 2°30.568 255.5 7.2 250 16.1
2010-05-17 12:30:06 51°20.091 2°30.395 255.2 7.1 250 16
2010-05-17 12:31:06 51°20.049 2°30.194 255.6 8.7 252 14.2
2010-05-17 12:32:06 51°20.011 2°30.033 252.7 4.4 243 15.4
2010-05-17 12:33:06 51°19.986 2°30.009 202.8 1.3 155 16.3
2010-05-17 12:34:06 51°19.966 2°30.034 183.6 1.6 133 15.6
2010-05-17 12:35:06 51°19.95 2°30.07 180.8 1.7 124 13
2010-05-17 12:36:06 51°19.935 2°30.107 180.8 1.7 121 15
2010-05-17 12:37:06 51°19.912 2°30.145 177.7 3 144 13.3
2010-05-17 12:38:06 51°19.848 2°30.255 140.9 8.5 132 15.7
2010-05-17 12:39:06 51°19.74 2°30.515 124.4 14.1 122 19
2010-05-17 12:40:06 51°19.615 2°30.841 125.7 14.5 124 24.1
2010-05-17 12:41:06 51°19.475 2°31.142 127.6 13.8 125 32.1
2010-05-17 12:42:06 51°19.334 2°31.431 127.8 13.7 130 32.1
2010-05-17 12:43:06 51°19.195 2°31.719 127.9 13.8 128 32.5
2010-05-17 12:44:06 51°19.054 2°32.008 127.7 13.8 128 32.7
2010-05-17 12:45:06 51°18.911 2°32.296 128.1 13.8 127 33.4
2010-05-17 12:46:06 51°18.773 2°32.59 127.5 13.7 125 31.8
2010-05-17 12:47:06 51°18.635 2°32.885 129 13.9 127 29.2
2010-05-17 12:48:05 51°18.501 2°33.181 128.6 14.2 126 24.6
2010-05-17 12:49:06 51°18.361 2°33.49 128.3 14.2 126 20.6
2010-05-17 12:50:06 51°18.223 2°33.798 128.6 14.3 125 27.6
2010-05-17 12:51:06 51°18.089 2°34.106 127.1 14 124 29.3
2010-05-17 12:52:06 51°17.953 2°34.409 128.4 14 127 30.2
2010-05-17 12:53:06 51°17.815 2°34.712 130.9 14.1 127 23.8
2010-05-17 12:54:06 51°17.666 2°35.003 133.6 14.4 128 19.6
2010-05-17 12:55:06 51°17.513 2°35.298 132.7 14.5 131 15
2010-05-17 12:56:06 51°17.361 2°35.597 133.3 14.7 129 14.7
2010-05-17 12:57:06 51°17.209 2°35.898 132.2 14.4 128 20.7
2010-05-17 12:58:06 51°17.059 2°36.194 132.5 14.2 130 27.8
2010-05-17 12:59:05 51°16.911 2°36.475 138.2 14 133 30.2
2010-05-17 13:00:06 51°16.729 2°36.664 157 10.4 153 29
2010-05-17 13:01:06 51°16.627 2°36.811 122.7 6.3 116 28.9
2010-05-17 13:02:06 51°16.623 2°36.905 69.1 2 74 29.2
2010-05-17 13:03:06 51°16.63 2°36.938 42.6 1.2 73 29.5
2010-05-17 13:04:05 51°16.635 2°36.966 25.9 1.1 72 29.4
2010-05-17 13:05:06 51°16.64 2°36.995 18.1 1.1 74 29.3
2010-05-17 13:06:05 51°16.645 2°37.024 13.4 1.1 74 29.3
2010-05-17 13:07:06 51°16.658 2°37.058 25 2.5 44 29.3
2010-05-17 13:08:05 51°16.682 2°37.147 94.9 4.5 92 29.5
2010-05-17 13:09:05 51°16.635 2°37.241 164.1 5.9 153 29.4
2010-05-17 13:10:05 51°16.49 2°37.289 180.3 11 176 28.8
2010-05-17 13:11:05 51°16.287 2°37.294 182.9 12.8 180 24.8
2010-05-17 13:12:06 51°16.066 2°37.302 181.5 13.1 178 16.4
2010-05-17 13:13:05 51°15.85 2°37.32 182.3 13.3 176 14.1
2010-05-17 13:14:06 51°15.625 2°37.339 182.1 13.4 176 14.9
2010-05-17 13:15:05 51°15.41 2°37.363 181.7 13 175 13.8
2010-05-17 13:16:05 51°15.191 2°37.395 181.5 13.5 175 14.3
2010-05-17 13:17:05 51°14.972 2°37.428 181.2 13.2 174 13.2
2010-05-17 13:18:05 51°14.751 2°37.46 181.3 13.2 174 12.7
2010-05-17 13:19:06 51°14.527 2°37.491 181.4 13.1 178 15.1
2010-05-17 13:20:05 51°14.312 2°37.518 181.4 13.2 173 17.4
2010-05-17 13:21:05 51°14.093 2°37.548 182.5 13.4 176 22.7
2010-05-17 13:22:05 51°13.875 2°37.561 187.3 13 181 21.3
2010-05-17 13:23:05 51°13.658 2°37.55 187.9 13 183 15
2010-05-17 13:24:05 51°13.441 2°37.535 188.1 13.1 183 12
2010-05-17 13:25:05 51°13.22 2°37.516 187.5 13.1 182 12.9
2010-05-17 13:26:05 51°12.999 2°37.498 187.7 13.1 183 14.2
2010-05-17 13:27:05 51°12.779 2°37.483 187.6 13 183 14.6
2010-05-17 13:28:06 51°12.565 2°37.422 198.8 13 193 14.3
2010-05-17 13:29:05 51°12.365 2°37.337 199.3 12.7 194 14.4
2010-05-17 13:30:05 51°12.159 2°37.253 198.7 12.7 195 14.2
2010-05-17 13:31:06 51°11.95 2°37.166 197.5 12.7 193 14.6
2010-05-17 13:32:05 51°11.745 2°37.096 196.3 12.8 192 15.3
2010-05-17 13:33:05 51°11.538 2°37.029 194.7 12.7 190 16
2010-05-17 13:34:05 51°11.328 2°36.987 191.9 12.7 188 16.2
2010-05-17 13:35:05 51°11.118 2°36.95 190 12.5 185 15.8
2010-05-17 13:36:05 51°10.908 2°36.93 188.3 12.7 185 14.4
2010-05-17 13:37:05 51°10.699 2°36.907 189.5 12.5 184 12.5
2010-05-17 13:38:06 51°10.487 2°36.882 189.5 12.5 186 12.5
2010-05-17 13:39:05 51°10.276 2°36.911 176.3 13.3 168 20.7
2010-05-17 13:40:05 51°10.063 2°36.992 174.5 13 169 20.9
2010-05-17 13:41:05 51°9.855 2°37.083 161.8 12.7 151 19.9
2010-05-17 13:42:05 51°9.701 2°37.262 158.1 10.6 152 19
2010-05-17 13:43:05 51°9.557 2°37.392 159 8.9 146 18.1
2010-05-17 13:44:05 51°9.472 2°37.522 138.9 5.8 120 16
2010-05-17 13:45:05 51°9.463 2°37.617 89.4 2.1 74 15.6
2010-05-17 13:46:05 51°9.47 2°37.657 75.2 1.2 77 15.6
2010-05-17 13:47:05 51°9.475 2°37.682 80.7 0.8 70 15.6
2010-05-17 13:48:05 51°9.481 2°37.696 93.9 0.7 37 15.5
2010-05-17 13:49:06 51°9.494 2°37.704 105.6 1 15 15.6
2010-05-17 13:50:05 51°9.512 2°37.71 115.1 1.3 10 15.8
2010-05-17 13:51:05 51°9.535 2°37.715 121.3 1.5 9 16
2010-05-17 13:52:05 51°9.556 2°37.736 119.7 2.5 80 16.4
2010-05-17 13:53:05 51°9.585 2°37.846 41.5 5.1 48 16.3
2010-05-17 13:54:05 51°9.657 2°37.877 318.5 3.9 341 17.2
2010-05-17 13:55:05 51°9.669 2°37.827 234.6 2 216 17.5
2010-05-17 13:56:05 51°9.61 2°37.799 211.7 5.3 199 17
2010-05-17 13:57:05 51°9.534 2°37.712 233.7 5.9 225 16.1
2010-05-17 13:58:06 51°9.455 2°37.619 233 4.5 230 15.6
2010-05-17 13:59:05 51°9.433 2°37.547 252.1 2.2 251 15.7
2010-05-17 14:00:05 51°9.423 2°37.512 244.4 1 233 15.7
2010-05-17 14:01:05 51°9.412 2°37.5 241.7 0.6 198 15.5
2010-05-17 14:02:05 51°9.405 2°37.501 243 0.3 145 15.6
2010-05-17 14:03:05 51°9.404 2°37.508 246.3 0.5 106 15.5
2010-05-17 14:04:06 51°9.404 2°37.523 249.2 0.6 85 15.4
2010-05-17 14:05:05 51°9.406 2°37.542 250.9 0.8 78 15.3
2010-05-17 14:06:05 51°9.409 2°37.565 252.7 1 81 15.4
2010-05-17 14:07:05 51°9.413 2°37.59 254.1 1 76 15.2
2010-05-17 14:08:05 51°9.418 2°37.618 256.2 1.1 73 15.2
2010-05-17 14:09:05 51°9.423 2°37.647 258.8 1.2 72 15.1
2010-05-17 14:10:05 51°9.429 2°37.678 261 1.3 76 15.1
2010-05-17 14:11:05 51°9.435 2°37.71 262.4 1.3 75 15.1
2010-05-17 14:12:05 51°9.441 2°37.737 264.7 0.4 46 15.2
2010-05-17 14:13:05 51°9.445 2°37.649 266.7 6.6 270 15.2
2010-05-17 14:14:05 51°9.449 2°37.443 274.1 6.5 283 16.1
2010-05-17 14:15:06 51°9.492 2°37.376 309.3 2.9 344 17.2
2010-05-17 14:16:05 51°9.533 2°37.37 312.2 2.3 5 18
2010-05-17 14:17:05 51°9.567 2°37.376 290.6 1.6 6 18.2
2010-05-17 14:18:05 51°9.583 2°37.383 257.9 0.7 35 18.4
2010-05-17 14:19:05 51°9.586 2°37.402 230.6 0.8 100 18.3
2010-05-17 14:20:05 51°9.58 2°37.427 217.7 1.1 117 18.2
2010-05-17 14:21:05 51°9.571 2°37.454 219.3 1.1 119 18
2010-05-17 14:22:05 51°9.562 2°37.477 223.2 0.9 138 17.5
2010-05-17 14:23:05 51°9.54 2°37.467 229.6 1.4 206 17.3
2010-05-17 14:24:05 51°9.523 2°37.458 233.8 0.7 192 17.1
2010-05-17 14:25:05 51°9.516 2°37.461 237.6 0.4 126 17.1
2010-05-17 14:26:05 51°9.511 2°37.467 235.7 0.7 203 16.9
2010-05-17 14:27:05 51°9.486 2°37.457 219.6 1.4 185 16.6
2010-05-17 14:28:05 51°9.47 2°37.455 234.4 0.6 183 16.3
2010-05-17 14:29:01 51°9.463 2°37.457 236.9 0.4 144 16.3
2010-05-17 14:30:09 51°9.459 2°37.467 239.1 0.4 113 16.2
2010-05-17 14:31:09 51°9.457 2°37.48 239.9 0.5 96 15.9
2010-05-17 14:32:09 51°9.457 2°37.494 241.8 0.5 83 16
2010-05-17 14:33:09 51°9.458 2°37.511 242.8 0.7 87 16
2010-05-17 14:34:09 51°9.46 2°37.53 242.8 0.7 85 15.9
2010-05-17 14:35:09 51°9.462 2°37.55 244.3 0.7 73 15.8
2010-05-17 14:36:09 51°9.465 2°37.57 244.9 0.8 75 15.7
2010-05-17 14:37:09 51°9.462 2°37.563 248.5 2 246 15.7
2010-05-17 14:38:09 51°9.457 2°37.527 252.9 1 266 15.7
2010-05-17 14:39:09 51°9.459 2°37.507 256 0.6 295 15.9
2010-05-17 14:40:09 51°9.464 2°37.499 257.9 0.4 337 16
2010-05-17 14:41:09 51°9.471 2°37.499 258.1 0.5 12 16.1
2010-05-17 14:42:09 51°9.479 2°37.504 257.8 0.6 24 16.2
2010-05-17 14:43:09 51°9.487 2°37.512 258.5 0.6 38 16.3
2010-05-17 14:44:09 51°9.497 2°37.524 258.6 0.7 44 16.3
2010-05-17 14:45:09 51°9.506 2°37.538 257.3 0.8 49 16.5
2010-05-17 14:46:09 51°9.515 2°37.554 257.9 0.9 47 16.5
2010-05-17 14:47:09 51°9.518 2°37.562 238 1 212 16.5
2010-05-17 14:48:09 51°9.473 2°37.564 211.2 2.6 193 15.8
2010-05-17 14:49:09 51°9.454 2°37.545 245.8 0.7 237 15.7
2010-05-17 14:50:09 51°9.452 2°37.541 248.7 0.1 60 15.7
2010-05-17 14:51:09 51°9.454 2°37.549 247.7 0.5 68 15.6
2010-05-17 14:52:09 51°9.456 2°37.565 243.4 0.7 79 15.5
2010-05-17 14:53:09 51°9.456 2°37.585 237.4 0.9 107 15.6
2010-05-17 14:54:09 51°9.451 2°37.605 231.9 0.9 115 15.4
2010-05-17 14:55:09 51°9.446 2°37.623 233.1 0.8 118 15.2
2010-05-17 14:56:09 51°9.44 2°37.638 235.5 0.6 118 15.2
2010-05-17 14:57:09 51°9.435 2°37.653 237.7 0.5 113 15
2010-05-17 14:58:09 51°9.425 2°37.649 243.9 1.5 237 15
2010-05-17 14:59:09 51°9.421 2°37.626 254.6 0.4 266 15.1
2010-05-17 15:00:09 51°9.425 2°37.623 260.4 0.3 347 15
2010-05-17 15:01:09 51°9.431 2°37.597 265.1 1.5 286 15.2
2010-05-17 15:02:09 51°9.435 2°37.572 255.9 0.2 322 15.3
2010-05-17 15:03:09 51°9.44 2°37.595 244 1.2 76 15.3
2010-05-17 15:04:09 51°9.443 2°37.63 229.1 1.4 84 15.1
2010-05-17 15:05:09 51°9.446 2°37.671 224.4 1.6 87 15.2
2010-05-17 15:06:09 51°9.446 2°37.709 227.5 0.8 166 14.9
2010-05-17 15:07:09 51°9.395 2°37.722 162.2 5.8 138 14.3
2010-05-17 15:08:09 51°9.364 2°37.978 95.2 13.7 89 13.4
2010-05-17 15:09:09 51°9.395 2°38.366 79.7 15.1 76 13.1
2010-05-17 15:10:09 51°9.473 2°38.748 75.6 15.1 74 12.9
2010-05-17 15:11:09 51°9.535 2°39.136 78.4 15.1 77 12.7
2010-05-17 15:12:09 51°9.603 2°39.525 74 15.3 71 12.4
2010-05-17 15:13:09 51°9.68 2°39.907 73.7 15.1 72 12.3
2010-05-17 15:14:09 51°9.755 2°40.285 74.8 15 73 12
2010-05-17 15:15:09 51°9.827 2°40.666 75.3 15 74 11.8
2010-05-17 15:16:09 51°9.899 2°41.049 75.3 15.1 74 11.6
2010-05-17 15:17:09 51°9.972 2°41.437 75.4 15.3 74 11.3
2010-05-17 15:18:09 51°10.042 2°41.825 75.1 15.3 74 11.2
2010-05-17 15:19:09 51°10.114 2°42.212 75.6 15.2 74 11.1
2010-05-17 15:20:09 51°10.179 2°42.55 71.2 10.3 70 11.7
2010-05-17 15:21:09 51°10.228 2°42.714 45.4 3.9 56 11.6
2010-05-17 15:22:09 51°10.244 2°42.772 45.8 2.2 72 11.5
2010-05-17 15:23:09 51°10.255 2°42.825 48.6 2.1 72 11.7
2010-05-17 15:24:09 51°10.265 2°42.876 46.7 2 73 11.7
2010-05-17 15:25:09 51°10.276 2°42.93 41.6 2.8 63 11.6
2010-05-17 15:26:09 51°10.332 2°42.962 329.8 4.2 343 11.5
2010-05-17 15:27:09 51°10.431 2°42.819 309.5 11.2 315 11.5
2010-05-17 15:28:09 51°10.57 2°42.594 308.9 12.1 314 12.7
2010-05-17 15:29:09 51°10.713 2°42.363 309.8 12.3 315 14.3
2010-05-17 15:30:20 51°10.883 2°42.092 310.2 12.3 316 15.3
2010-05-17 15:31:20 51°11.019 2°41.984 348.3 6.6 5 15.2
2010-05-17 15:32:20 51°11.075 2°42.039 45.9 2 65 15.1
2010-05-17 15:33:21 51°11.083 2°42.081 90.8 1.6 74 -999
2010-05-17 15:34:23 51°11.09 2°42.125 108 1.7 80 -999
2010-05-17 15:35:21 51°11.094 2°42.17 108.8 1.8 84 15.2
2010-05-17 15:36:20 51°11.096 2°42.215 105.3 1.9 86 15.2
2010-05-17 15:37:20 51°11.086 2°42.36 103.9 9.2 98 15.3
2010-05-17 15:38:20 51°11.095 2°42.677 83.4 14.1 79 15.1
2010-05-17 15:39:20 51°11.151 2°43.061 79.4 15.1 77 15.2
2010-05-17 15:40:20 51°11.217 2°43.441 71.9 14.8 70 15.2
2010-05-17 15:41:20 51°11.311 2°43.805 69.4 14.9 68 15.1
2010-05-17 15:42:20 51°11.398 2°44.175 71.2 14.8 70 15.3
2010-05-17 15:43:20 51°11.481 2°44.544 72 14.8 70 15.3
2010-05-17 15:44:20 51°11.566 2°44.912 72.2 14.7 71 15.4
2010-05-17 15:45:20 51°11.649 2°45.28 71.8 14.8 70 15.3
2010-05-17 15:46:20 51°11.734 2°45.649 71.9 15 70 15.3
2010-05-17 15:47:20 51°11.819 2°46.023 72.7 14.9 70 15.4
2010-05-17 15:48:20 51°11.904 2°46.397 72.6 15 70 15.3
2010-05-17 15:49:20 51°11.989 2°46.771 72.7 15 70 15.2
2010-05-17 15:50:20 51°12.075 2°47.144 71.8 15 69 15.1
2010-05-17 15:51:20 51°12.161 2°47.518 71.9 15.1 70 15.2
2010-05-17 15:52:20 51°12.249 2°47.894 72.7 15.2 70 14.8
2010-05-17 15:53:20 51°12.335 2°48.268 72.8 15 70 14.6
2010-05-17 15:54:20 51°12.423 2°48.637 70.4 14.8 67 14.1
2010-05-17 15:55:20 51°12.525 2°48.999 67.4 15 66 14
2010-05-17 15:56:20 51°12.635 2°49.356 62.5 15 59 13.9
2010-05-17 15:57:20 51°12.764 2°49.697 59.9 15.1 61 13.7
2010-05-17 15:58:20 51°12.895 2°50.038 60.6 15.1 59 13.6
2010-05-17 15:59:20 51°13.023 2°50.379 60.7 15 59 13.6
2010-05-17 16:00:20 51°13.152 2°50.72 60.8 15 60 13.3
2010-05-17 16:01:20 51°13.278 2°51.059 61.3 14.9 59 13.3
2010-05-17 16:02:20 51°13.405 2°51.4 61.1 15 59 13
2010-05-17 16:03:20 51°13.533 2°51.742 61.2 15 59 13.1
2010-05-17 16:04:20 51°13.66 2°52.084 61.1 15 58 12.6
2010-05-17 16:05:20 51°13.787 2°52.426 62 14.9 59 12.6
2010-05-17 16:06:20 51°13.913 2°52.767 61.1 14.9 60 12.3
2010-05-17 16:07:20 51°14.041 2°53.107 60.7 14.8 59 12.3
2010-05-17 16:08:20 51°14.163 2°53.421 60.8 13.6 59 12.1
2010-05-17 16:09:20 51°14.28 2°53.729 62.3 13.6 61 11.7
2010-05-17 16:10:20 51°14.39 2°54.042 62.7 13.5 60 11.5
2010-05-17 16:11:20 51°14.507 2°54.347 62.6 13.4 60 12.1
2010-05-17 16:12:20 51°14.59 2°54.668 87.5 12.9 86 12.2
2010-05-17 16:13:20 51°14.531 2°54.982 129.7 12 132 13.8
2010-05-17 16:14:20 51°14.37 2°55.16 144.1 11.2 144 12.9
2010-05-17 16:15:20 51°14.244 2°55.305 144.3 8.4 145 13
2010-05-17 16:16:20 51°14.129 2°55.421 150.5 8.1 152 13
2010-05-17 16:17:20 51°14.004 2°55.507 158 8.2 159 13.1
2010-05-17 16:19:14 51°13.914 2°55.569 153.2 -999 -999 13.3
2010-05-17 16:20:14 51°13.726 2°55.772 127.3 4.9 128 14.3
2010-05-17 16:21:14 51°13.686 2°55.861 121.5 3.8 119 11.3
2010-05-17 16:22:13 51°13.667 2°55.939 105.4 2.4 106 9.2
2010-05-17 16:23:15 51°13.663 2°55.96 117.6 0.2 67 -999